Time;durP1;ratioP1;P1;durP2;ratioP2;P2;SDS_P1;SDS_P2;PMS_P1;PMS_P2;Temp;Humidity;BMP_temperature;BMP_pressure;BME280_temperature;BME280_humidity;BME280_pressure;Samples;Min_cycle;Max_cycle;Signal;HPM_P1;HPM_P2
2022/09/21 00:01:04;;;;;;;;;;;;;;;10.50;59.76;100067.16;4378455;32;19989;-88
2022/09/21 00:03:29;;;;;;;;;;;;;;;10.62;59.76;100063.38;4378789;32;20037;-90
2022/09/21 00:06:00;;;;;;;;;;;;;;;10.61;59.76;100070.31;4392711;32;19983;-88
2022/09/21 00:08:26;;;;;;;;;;;;;;;10.67;59.77;100067.56;4379229;32;19994;-90
2022/09/21 00:10:51;;;;;;;;;;;;;;;10.75;59.78;100067.34;4379009;32;20037;-89
2022/09/21 00:13:18;;;;;;;;;;;;;;;10.83;59.78;100069.72;4379185;32;19982;-90
2022/09/21 00:15:43;;;;;;;;;;;;;;;10.64;59.77;100070.22;4381383;32;20357;-90
2022/09/21 00:18:09;;;;;;;;;;;;;;;10.51;59.76;100075.81;4380937;32;19986;-89
2022/09/21 00:20:34;;;;;;;;;;;;;;;10.75;59.77;100075.16;4380951;32;20315;-89
2022/09/21 00:22:59;;;;;;;;;;;;;;;10.75;59.77;100067.34;4380611;32;19990;-90
2022/09/21 00:25:24;;;;;;;;;;;;;;;10.57;59.77;100066.09;4380627;32;19983;-89
2022/09/21 00:27:50;;;;;;;;;;;;;;;10.81;59.78;100063.72;4380085;32;20025;-89
2022/09/21 00:30:15;;;;;;;;;;;;;;;10.80;59.78;100059.41;4380790;32;19982;-88
2022/09/21 00:32:40;;;;;;;;;;;;;;;10.76;59.77;100064.72;4380875;32;19978;-88
2022/09/21 00:35:06;;;;;;;;;;;;;;;10.52;59.76;100062.78;4380720;32;20001;-90
2022/09/21 00:37:31;;;;;;;;;;;;;;;10.70;59.78;100066.63;4381242;32;20012;-90
2022/09/21 00:39:57;;;;;;;;;;;;;;;10.84;59.79;100066.22;4380681;32;19975;-90
2022/09/21 00:42:23;;;;;;;;;;;;;;;10.72;59.77;100070.91;4380976;32;20420;-91
2022/09/21 00:44:49;;;;;;;;;;;;;;;10.64;59.77;100067.63;4380887;32;19998;-90
2022/09/21 00:47:25;;;;;;;;;;;;;;;10.49;59.77;100068.06;4380240;32;20363;-91
2022/09/21 00:50:00;;;;;;;;;;;;;;;10.52;59.76;100070.56;4381043;32;19965;-92
2022/09/21 00:52:25;;;;;;;;;;;;;;;10.59;59.76;100071.25;4381191;32;19966;-92
2022/09/21 00:54:52;;;;;;;;;;;;;;;10.58;59.77;100074.75;4380604;32;20394;-90
2022/09/21 00:57:19;;;;;;;;;;;;;;;10.58;59.77;100072.16;4380754;32;20352;-89
2022/09/21 00:59:44;;;;;;;;;;;;;;;10.56;59.77;100077.41;4394092;32;20013;-89
2022/09/21 01:02:10;;;;;;;;;;;;;;;10.60;59.76;100083.38;4380494;32;20324;-87
2022/09/21 01:04:35;;;;;;;;;;;;;;;10.53;59.75;100081.84;4394159;32;19975;-88
2022/09/21 01:07:02;;;;;;;;;;;;;;;10.53;59.76;100087.91;4394342;32;20248;-89
2022/09/21 01:09:27;;;;;;;;;;;;;;;10.48;59.76;100089.78;4380390;32;19987;-88
2022/09/21 01:11:53;;;;;;;;;;;;;;;10.49;59.76;100088.88;4380169;32;20054;-87
2022/09/21 01:14:19;;;;;;;;;;;;;;;10.39;59.75;100087.41;4394257;32;20549;-89
2022/09/21 01:16:50;;;;;;;;;;;;;;;10.38;59.75;100089.16;4382515;32;20141;-91
2022/09/21 01:19:34;;;;;;;;;;;;;;;10.31;59.75;100087.59;4386482;32;19983;-90
2022/09/21 01:22:09;;;;;;;;;;;;;;;10.33;59.75;100084.97;4383511;32;20039;-91
2022/09/21 01:24:35;;;;;;;;;;;;;;;10.44;59.76;100088.16;4380439;32;20005;-91
2022/09/21 01:27:12;;;;;;;;;;;;;;;10.39;59.75;100095.19;4380753;32;19999;-91
2022/09/21 01:29:41;;;;;;;;;;;;;;;10.46;59.75;100088.97;4393904;32;20273;-88
2022/09/21 01:32:10;;;;;;;;;;;;;;;10.43;59.76;100087.31;4380420;32;20000;-89
2022/09/21 01:34:46;;;;;;;;;;;;;;;10.26;59.75;100093.81;4380118;32;19986;-89
2022/09/21 01:37:14;;;;;;;;;;;;;;;10.19;59.75;100094.84;4380435;32;19994;-89
2022/09/21 01:39:39;;;;;;;;;;;;;;;10.30;59.74;100088.50;4380510;32;20037;-89
2022/09/21 01:42:05;;;;;;;;;;;;;;;10.21;59.74;100095.69;4380038;32;19978;-88
2022/09/21 01:44:32;;;;;;;;;;;;;;;10.28;59.75;100094.63;4379943;32;20010;-89
2022/09/21 01:46:57;;;;;;;;;;;;;;;10.40;59.76;100091.72;4380521;32;20422;-89
2022/09/21 01:49:24;;;;;;;;;;;;;;;10.41;59.75;100099.50;4380060;32;19990;-90
2022/09/21 01:51:51;;;;;;;;;;;;;;;10.30;59.75;100098.06;4379811;32;20413;-88
2022/09/21 01:54:20;;;;;;;;;;;;;;;10.37;59.75;100097.00;4379882;32;21787;-89
2022/09/21 01:56:48;;;;;;;;;;;;;;;10.31;59.74;100099.75;4380594;32;20002;-89
2022/09/21 01:59:18;;;;;;;;;;;;;;;10.43;59.76;100099.47;4380063;32;20016;-89
2022/09/21 02:01:48;;;;;;;;;;;;;;;10.42;59.75;100102.97;4379909;32;19997;-88
2022/09/21 02:04:13;;;;;;;;;;;;;;;10.45;59.76;100101.13;4379093;32;20004;-88
2022/09/21 02:06:39;;;;;;;;;;;;;;;10.45;59.75;100097.66;4379987;32;19978;-89
2022/09/21 02:09:04;;;;;;;;;;;;;;;10.58;59.77;100093.84;4379981;32;19970;-88
2022/09/21 02:11:29;;;;;;;;;;;;;;;10.62;59.76;100095.44;4379808;32;19983;-88
2022/09/21 02:13:55;;;;;;;;;;;;;;;10.73;59.77;100103.00;4380101;32;20316;-89
2022/09/21 02:16:20;;;;;;;;;;;;;;;10.67;59.77;100101.41;4380087;32;19994;-89
2022/09/21 02:19:08;;;;;;;;;;;;;;;10.78;59.78;100101.13;4380053;32;19983;-89
2022/09/21 02:21:52;;;;;;;;;;;;;;;10.84;59.77;100102.69;4380183;32;20021;-88
2022/09/21 02:24:36;;;;;;;;;;;;;;;10.87;59.78;100108.66;4379663;32;19998;-88
2022/09/21 02:27:03;;;;;;;;;;;;;;;10.88;59.78;100107.75;4380311;32;20074;-88
2022/09/21 02:29:48;;;;;;;;;;;;;;;10.89;59.78;100114.72;4380472;32;20008;-88
2022/09/21 02:32:20;;;;;;;;;;;;;;;10.99;59.79;100103.12;4379345;32;19982;-90
2022/09/21 02:34:48;;;;;;;;;;;;;;;10.88;59.78;100107.75;4379841;32;20429;-89
2022/09/21 02:37:18;;;;;;;;;;;;;;;10.97;59.78;100107.53;4379600;32;20010;-88
2022/09/21 02:39:43;;;;;;;;;;;;;;;10.98;59.78;100100.56;4379978;32;19992;-89
2022/09/21 02:42:09;;;;;;;;;;;;;;;10.87;59.78;100105.22;4394619;32;19975;-89
2022/09/21 02:44:37;;;;;;;;;;;;;;;10.82;59.77;100104.47;4380690;32;20083;-88
2022/09/21 02:47:08;;;;;;;;;;;;;;;10.78;59.77;100108.94;4380869;32;20046;-88
2022/09/21 02:49:34;;;;;;;;;;;;;;;10.64;59.77;100116.25;4379503;32;20332;-88
2022/09/21 02:52:00;;;;;;;;;;;;;;;10.56;59.76;100120.81;4379940;32;19985;-88
2022/09/21 02:54:27;;;;;;;;;;;;;;;10.64;59.77;100121.44;4379183;32;19974;-89
2022/09/21 02:56:52;;;;;;;;;;;;;;;10.74;59.77;100107.31;4379377;32;20516;-88
2022/09/21 02:59:18;;;;;;;;;;;;;;;10.87;59.78;100113.03;4379865;32;19994;-89
2022/09/21 03:01:43;;;;;;;;;;;;;;;10.86;59.78;100108.72;4379644;32;20003;-87
2022/09/21 03:04:09;;;;;;;;;;;;;;;10.89;59.78;100111.25;4392503;32;19997;-89
2022/09/21 03:06:34;;;;;;;;;;;;;;;10.86;59.78;100122.59;4379571;32;20033;-88
2022/09/21 03:08:59;;;;;;;;;;;;;;;10.71;59.77;100123.88;4379265;32;19998;-87
2022/09/21 03:11:25;;;;;;;;;;;;;;;10.68;59.77;100116.16;4393113;32;20340;-88
2022/09/21 03:13:51;;;;;;;;;;;;;;;10.79;59.78;100125.41;4379865;32;19998;-88
2022/09/21 03:16:16;;;;;;;;;;;;;;;10.82;59.78;100120.09;4379120;32;19990;-87
2022/09/21 03:18:43;;;;;;;;;;;;;;;10.86;59.78;100132.16;4379583;32;20028;-88
2022/09/21 03:21:08;;;;;;;;;;;;;;;10.89;59.78;100132.09;4379638;32;19993;-87
2022/09/21 03:23:33;;;;;;;;;;;;;;;10.98;59.78;100130.06;4392870;32;19983;-88
2022/09/21 03:25:59;;;;;;;;;;;;;;;10.90;59.78;100139.00;4379062;32;20001;-88
2022/09/21 03:28:24;;;;;;;;;;;;;;;10.96;59.79;100134.47;4379072;32;19978;-87
2022/09/21 03:30:49;;;;;;;;;;;;;;;10.95;59.78;100132.78;4379577;32;20005;-88
2022/09/21 03:33:15;;;;;;;;;;;;;;;11.01;59.79;100135.19;4378501;32;20308;-88
2022/09/21 03:35:40;;;;;;;;;;;;;;;10.93;59.79;100131.97;4378792;32;20336;-90
2022/09/21 03:38:07;;;;;;;;;;;;;;;11.02;59.79;100134.28;4379121;32;19978;-90
2022/09/21 03:40:32;;;;;;;;;;;;;;;10.85;59.78;100128.69;4379542;32;20441;-91
2022/09/21 03:42:57;;;;;;;;;;;;;;;10.87;59.78;100139.91;4379046;32;20011;-90
2022/09/21 03:45:23;;;;;;;;;;;;;;;10.90;59.78;100133.78;4378407;32;20737;-90
2022/09/21 03:47:48;;;;;;;;;;;;;;;10.94;59.79;100133.66;4379544;32;20371;-91
2022/09/21 03:50:14;;;;;;;;;;;;;;;10.89;59.78;100140.75;4381343;32;20025;-90
2022/09/21 03:52:39;;;;;;;;;;;;;;;10.91;59.77;100144.16;4381712;32;20012;-92
2022/09/21 03:55:05;;;;;;;;;;;;;;;10.87;59.78;100144.28;4381182;32;20010;-92
2022/09/21 03:57:31;;;;;;;;;;;;;;;11.02;59.79;100146.47;4381267;32;20001;-90
2022/09/21 03:59:56;;;;;;;;;;;;;;;11.00;59.79;100143.91;4381161;32;19990;-91
2022/09/21 04:02:21;;;;;;;;;;;;;;;10.77;59.78;100146.28;4382189;32;20014;-91
2022/09/21 04:04:47;;;;;;;;;;;;;;;10.70;59.76;100149.94;4381746;32;20062;-89
2022/09/21 04:07:13;;;;;;;;;;;;;;;10.79;59.78;100152.28;4382523;32;20252;-92
2022/09/21 04:09:38;;;;;;;;;;;;;;;10.76;59.77;100148.03;4386633;32;19990;-92
2022/09/21 04:12:03;;;;;;;;;;;;;;;10.55;59.76;100153.78;4386211;32;20009;-91
2022/09/21 04:14:28;;;;;;;;;;;;;;;10.51;59.76;100162.56;4380405;32;19987;-90
2022/09/21 04:16:54;;;;;;;;;;;;;;;10.51;59.76;100162.56;4380804;32;20295;-92
2022/09/21 04:19:21;;;;;;;;;;;;;;;10.44;59.75;100161.88;4381424;32;19974;-92
2022/09/21 04:21:46;;;;;;;;;;;;;;;10.34;59.75;100157.78;4380487;32;19990;-93
2022/09/21 04:24:11;;;;;;;;;;;;;;;10.33;59.75;100163.88;4380871;32;19986;-89
2022/09/21 04:26:37;;;;;;;;;;;;;;;10.25;59.75;100164.97;4380777;32;19978;-89
2022/09/21 04:29:02;;;;;;;;;;;;;;;10.30;59.75;100168.31;4394432;32;20252;-89
2022/09/21 04:31:27;;;;;;;;;;;;;;;10.31;59.75;100170.00;4379819;32;19990;-89
2022/09/21 04:33:53;;;;;;;;;;;;;;;10.39;59.75;100163.72;4380395;32;19987;-89
2022/09/21 04:36:19;;;;;;;;;;;;;;;10.29;59.75;100167.44;4380925;32;19983;-88
2022/09/21 04:38:44;;;;;;;;;;;;;;;10.43;59.75;100172.31;4394904;32;19979;-88
2022/09/21 04:41:10;;;;;;;;;;;;;;;10.34;59.75;100167.31;4394760;32;20264;-88
2022/09/21 04:43:35;;;;;;;;;;;;;;;10.34;59.75;100169.94;4381101;32;19998;-88
2022/09/21 04:46:07;;;;;;;;;;;;;;;10.40;59.75;100175.84;4380674;32;19971;-88
2022/09/21 04:48:32;;;;;;;;;;;;;;;10.36;59.75;100179.41;4380565;32;19986;-87
2022/09/21 04:50:57;;;;;;;;;;;;;;;10.24;59.75;100184.91;4379953;32;20038;-87
2022/09/21 04:53:22;;;;;;;;;;;;;;;10.33;59.75;100184.69;4394349;32;19994;-88
2022/09/21 04:55:48;;;;;;;;;;;;;;;10.20;59.74;100185.00;4379383;32;19997;-89
2022/09/21 04:58:13;;;;;;;;;;;;;;;10.25;59.75;100186.63;4380851;32;19978;-88
2022/09/21 05:00:38;;;;;;;;;;;;;;;10.32;59.76;100190.78;4379358;32;21095;-88
2022/09/21 05:03:03;;;;;;;;;;;;;;;10.36;59.75;100196.75;4380941;32;19987;-88
2022/09/21 05:05:28;;;;;;;;;;;;;;;10.39;59.75;100197.53;4380533;32;19993;-88
2022/09/21 05:07:54;;;;;;;;;;;;;;;10.23;59.74;100201.41;4380414;32;21246;-88
2022/09/21 05:10:19;;;;;;;;;;;;;;;10.40;59.75;100193.19;4394001;32;23950;-88
2022/09/21 05:12:45;;;;;;;;;;;;;;;10.37;59.75;100188.91;4380435;32;20272;-88
2022/09/21 05:15:11;;;;;;;;;;;;;;;10.55;59.76;100192.84;4380572;32;20049;-88
2022/09/21 05:17:36;;;;;;;;;;;;;;;10.50;59.76;100194.69;4384289;32;19974;-88
2022/09/21 05:20:02;;;;;;;;;;;;;;;10.63;59.77;100198.69;4380741;32;20022;-89
2022/09/21 05:22:27;;;;;;;;;;;;;;;10.59;59.76;100193.59;4380621;32;20026;-88
2022/09/21 05:24:52;;;;;;;;;;;;;;;10.51;59.76;100190.34;4380409;32;20323;-88
2022/09/21 05:27:17;;;;;;;;;;;;;;;10.48;59.76;100203.44;4380611;32;20281;-88
2022/09/21 05:29:43;;;;;;;;;;;;;;;10.48;59.76;100206.91;4380077;32;26645;-88
2022/09/21 05:32:13;;;;;;;;;;;;;;;10.38;59.75;100202.78;4380704;32;19994;-87
2022/09/21 05:34:41;;;;;;;;;;;;;;;10.51;59.76;100204.22;4383648;32;19951;-89
2022/09/21 05:37:25;;;;;;;;;;;;;;;10.49;59.76;100205.16;4403619;32;19987;-88
2022/09/21 05:39:51;;;;;;;;;;;;;;;10.45;59.75;100207.81;4381367;32;20046;-89
2022/09/21 05:42:16;;;;;;;;;;;;;;;10.42;59.75;100205.31;4394834;32;19982;-88
2022/09/21 05:44:41;;;;;;;;;;;;;;;10.51;59.76;100206.81;4394695;32;20014;-88
2022/09/21 05:47:13;;;;;;;;;;;;;;;10.60;59.76;100211.78;4380579;32;20009;-86
2022/09/21 05:49:48;;;;;;;;;;;;;;;10.68;59.77;100201.22;4380840;32;20573;-86
2022/09/21 05:52:32;;;;;;;;;;;;;;;10.53;59.76;100209.38;4381009;32;20050;-89
2022/09/21 05:55:00;;;;;;;;;;;;;;;10.58;59.76;100208.38;4380447;32;20020;-90
2022/09/21 05:57:44;;;;;;;;;;;;;;;10.52;59.75;100211.13;4380675;32;19986;-88
2022/09/21 06:00:17;;;;;;;;;;;;;;;10.64;59.77;100205.59;4394295;32;19975;-89
2022/09/21 06:02:48;;;;;;;;;;;;;;;10.54;59.75;100209.34;4380539;32;20049;-89
2022/09/21 06:05:14;;;;;;;;;;;;;;;10.43;59.75;100206.16;4380548;32;20378;-89
2022/09/21 06:07:40;;;;;;;;;;;;;;;10.49;59.76;100216.41;4380686;32;19982;-88
2022/09/21 06:10:06;;;;;;;;;;;;;;;10.51;59.76;100209.41;4380244;32;19995;-89
2022/09/21 06:12:31;;;;;;;;;;;;;;;10.72;59.77;100214.09;4380472;32;20032;-89
2022/09/21 06:14:57;;;;;;;;;;;;;;;10.56;59.77;100212.75;4379414;32;33784;-87
2022/09/21 06:17:22;;;;;;;;;;;;;;;10.71;59.77;100217.59;4380106;32;19986;-87
2022/09/21 06:19:47;;;;;;;;;;;;;;;10.64;59.77;100225.56;4380378;32;20013;-86
2022/09/21 06:22:13;;;;;;;;;;;;;;;10.61;59.76;100218.69;4379793;32;19986;-88
2022/09/21 06:24:38;;;;;;;;;;;;;;;10.74;59.77;100225.34;4378997;32;25964;-88
2022/09/21 06:27:03;;;;;;;;;;;;;;;10.71;59.77;100225.41;4379579;32;20029;-88
2022/09/21 06:29:28;;;;;;;;;;;;;;;10.73;59.77;100218.41;4378821;32;20135;-88
2022/09/21 06:31:54;;;;;;;;;;;;;;;10.75;59.77;100224.44;4379260;32;19990;-88
2022/09/21 06:34:19;;;;;;;;;;;;;;;10.76;59.77;100233.94;4379293;32;19990;-87
2022/09/21 06:36:44;;;;;;;;;;;;;;;10.74;59.77;100222.72;4379985;32;20013;-89
2022/09/21 06:39:09;;;;;;;;;;;;;;;10.88;59.78;100226.72;4379625;32;20002;-88
2022/09/21 06:41:35;;;;;;;;;;;;;;;10.93;59.78;100227.47;4379132;32;19998;-88
2022/09/21 06:44:00;;;;;;;;;;;;;;;11.05;59.78;100234.94;4379413;32;20010;-88
2022/09/21 06:46:25;;;;;;;;;;;;;;;11.13;59.79;100233.03;4379387;32;20033;-89
2022/09/21 06:48:50;;;;;;;;;;;;;;;11.30;59.80;100229.94;4392722;32;25139;-86
2022/09/21 06:51:16;;;;;;;;;;;;;;;11.42;59.81;100234.84;4392923;32;20021;-88
2022/09/21 06:53:41;;;;;;;;;;;;;;;11.42;59.81;100233.97;4379419;32;19970;-87
2022/09/21 06:56:07;;;;;;;;;;;;;;;11.52;59.81;100238.03;4379115;32;20041;-88
2022/09/21 06:58:36;;;;;;;;;;;;;;;11.50;59.81;100239.81;4379404;32;20038;-89
2022/09/21 07:01:08;;;;;;;;;;;;;;;11.66;59.82;100246.31;4390901;32;19971;-86
2022/09/21 07:03:33;;;;;;;;;;;;;;;11.76;59.83;100246.91;4367933;32;20323;-88
2022/09/21 07:05:59;;;;;;;;;;;;;;;11.78;59.83;100239.88;4379153;32;19975;-90
2022/09/21 07:08:25;;;;;;;;;;;;;;;11.96;59.83;100248.06;4378989;32;19994;-88
2022/09/21 07:10:50;;;;;;;;;;;;;;;11.99;59.84;100245.38;4379168;32;20040;-89
2022/09/21 07:13:16;;;;;;;;;;;;;;;12.18;59.85;100242.19;4378716;32;21703;-90
2022/09/21 07:15:42;;;;;;;;;;;;;;;12.06;59.84;100253.84;4392660;32;19983;-89
2022/09/21 07:18:13;;;;;;;;;;;;;;;11.93;59.83;100245.56;4379068;32;20014;-88
2022/09/21 07:20:39;;;;;;;;;;;;;;;12.04;59.84;100246.97;4378829;32;20079;-88
2022/09/21 07:23:15;;;;;;;;;;;;;;;12.15;59.85;100248.38;4379191;32;20036;-88
2022/09/21 07:25:40;;;;;;;;;;;;;;;12.30;59.86;100249.63;4394531;32;20038;-88
2022/09/21 07:28:06;;;;;;;;;;;;;;;12.52;59.87;100241.97;4368263;32;19986;-85
2022/09/21 07:30:31;;;;;;;;;;;;;;;12.77;59.88;100249.88;4394604;32;19975;-87
2022/09/21 07:32:57;;;;;;;;;;;;;;;12.79;59.88;100248.09;4394426;32;19990;-87
2022/09/21 07:35:22;;;;;;;;;;;;;;;13.03;59.89;100249.03;4381009;32;19987;-88
2022/09/21 07:37:47;;;;;;;;;;;;;;;13.18;59.90;100245.91;4380493;32;19994;-87
2022/09/21 07:40:13;;;;;;;;;;;;;;;13.21;59.90;100249.25;4380712;32;19992;-88
2022/09/21 07:42:38;;;;;;;;;;;;;;;13.27;59.90;100247.37;4380466;32;19978;-89
2022/09/21 07:45:03;;;;;;;;;;;;;;;13.32;59.91;100259.34;4380372;32;20025;-89
2022/09/21 07:47:29;;;;;;;;;;;;;;;13.31;59.91;100244.59;4380441;32;20026;-87
2022/09/21 07:49:54;;;;;;;;;;;;;;;13.12;59.90;100257.41;4380490;32;19998;-87
2022/09/21 07:52:20;;;;;;;;;;;;;;;13.18;59.90;100253.75;4380446;32;20321;-87
2022/09/21 07:54:45;;;;;;;;;;;;;;;13.21;59.90;100254.50;4380429;32;20001;-88
2022/09/21 07:59:57;;;;;;;;;;;;;;;13.52;59.92;100243.81;4382067;32;20125;-87
2022/09/21 08:02:22;;;;;;;;;;;;;;;13.65;59.94;100244.22;4380277;32;20550;-87
2022/09/21 08:04:47;;;;;;;;;;;;;;;13.96;59.95;100240.44;4380288;32;19986;-88
2022/09/21 08:07:12;;;;;;;;;;;;;;;13.96;59.95;100240.44;4380034;32;22688;-87
2022/09/21 08:09:38;;;;;;;;;;;;;;;14.12;59.96;100244.19;4380838;32;19990;-86
2022/09/21 08:12:03;;;;;;;;;;;;;;;14.13;59.96;100236.28;4381319;32;19993;-88
2022/09/21 08:14:28;;;;;;;;;;;;;;;14.28;59.96;100242.69;4380986;32;21492;-89
2022/09/21 08:16:53;;;;;;;;;;;;;;;14.49;59.98;100250.66;4380751;32;20006;-88
2022/09/21 08:19:19;;;;;;;;;;;;;;;14.58;59.98;100250.25;4381206;32;20236;-87
2022/09/21 08:21:47;;;;;;;;;;;;;;;14.85;59.99;100245.66;4380743;32;19986;-87
2022/09/21 08:24:12;;;;;;;;;;;;;;;14.95;60.00;100244.37;4381846;32;20328;-88
2022/09/21 08:26:38;;;;;;;;;;;;;;;14.95;60.00;100239.97;4392388;32;19982;-88
2022/09/21 08:29:03;;;;;;;;;;;;;;;14.94;60.00;100248.75;4395497;32;19982;-87
2022/09/21 08:31:29;;;;;;;;;;;;;;;15.25;60.02;100242.19;4381160;32;19982;-88
2022/09/21 08:33:56;;;;;;;;;;;;;;;15.53;60.03;100240.06;4380759;32;20025;-88
2022/09/21 08:36:22;;;;;;;;;;;;;;;15.71;60.04;100241.06;4394422;32;20017;-88
2022/09/21 08:38:47;;;;;;;;;;;;;;;15.77;60.04;100237.28;4381103;32;19990;-88
2022/09/21 08:41:12;;;;;;;;;;;;;;;15.86;60.04;100234.28;4381163;32;20041;-88
2022/09/21 08:43:39;;;;;;;;;;;;;;;15.66;60.03;100237.78;4394944;32;19990;-89
2022/09/21 08:46:34;;;;;;;;;;;;;;;15.65;60.03;100244.81;4381216;32;20021;-88
2022/09/21 08:49:27;;;;;;;;;;;;;;;15.63;60.04;100254.53;4384678;32;20421;-88
2022/09/21 08:51:57;;;;;;;;;;;;;;;15.66;60.04;100245.66;4392780;32;19993;-89
2022/09/21 08:54:24;;;;;;;;;;;;;;;15.60;60.03;100249.38;4394981;32;20336;-88
2022/09/21 08:56:49;;;;;;;;;;;;;;;15.63;60.04;100240.56;4380853;32;19994;-88
2022/09/21 08:59:14;;;;;;;;;;;;;;;15.88;60.05;100243.78;4380830;32;20033;-88
2022/09/21 09:01:48;;;;;;;;;;;;;;;15.93;60.06;100241.78;4380739;32;19979;-89
2022/09/21 09:04:32;;;;;;;;;;;;;;;15.98;60.05;100248.59;4381005;32;20680;-87
2022/09/21 09:06:57;;;;;;;;;;;;;;;15.88;60.05;100248.16;4395056;32;20369;-88
2022/09/21 09:09:32;;;;;;;;;;;;;;;15.72;60.04;100252.41;4394718;32;19982;-88
2022/09/21 09:12:00;;;;;;;;;;;;;;;15.80;60.04;100255.53;4380820;32;20041;-87
2022/09/21 09:14:32;;;;;;;;;;;;;;;15.82;60.05;100256.31;4394832;32;19979;-87
2022/09/21 09:17:16;;;;;;;;;;;;;;;15.86;60.06;100250.03;4380417;32;19978;-88
2022/09/21 09:20:01;;;;;;;;;;;;;;;15.87;60.05;100251.72;4394738;32;20047;-88
2022/09/21 09:22:28;;;;;;;;;;;;;;;16.12;60.06;100247.03;4386710;32;20270;-86
2022/09/21 09:24:54;;;;;;;;;;;;;;;16.28;60.07;100247.13;4382318;32;20386;-87
2022/09/21 09:27:38;;;;;;;;;;;;;;;16.29;60.06;100243.59;4381992;32;19986;-88
2022/09/21 09:30:04;;;;;;;;;;;;;;;16.41;60.08;100243.03;4382376;32;20012;-88
2022/09/21 09:32:38;;;;;;;;;;;;;;;16.54;60.08;100238.00;4369027;32;19998;-88
2022/09/21 09:35:06;;;;;;;;;;;;;;;16.54;60.08;100243.25;4380804;32;19986;-88
2022/09/21 09:37:32;;;;;;;;;;;;;;;16.55;60.09;100234.44;4380450;32;20264;-87
2022/09/21 09:39:57;;;;;;;;;;;;;;;16.56;60.09;100239.66;4394517;32;20044;-88
2022/09/21 09:42:35;;;;;;;;;;;;;;;16.72;60.10;100231.03;4381246;32;20027;-88
2022/09/21 09:45:02;;;;;;;;;;;;;;;16.71;60.10;100238.06;4380811;32;20043;-89
2022/09/21 09:47:40;;;;;;;;;;;;;;;16.86;60.10;100232.06;4381006;32;20002;-87
2022/09/21 09:50:09;;;;;;;;;;;;;;;17.25;60.12;100235.34;4400865;32;20004;-86
2022/09/21 09:52:35;;;;;;;;;;;;;;;17.03;60.11;100236.44;4384184;32;19987;-87
2022/09/21 09:55:00;;;;;;;;;;;;;;;17.04;60.12;100232.91;4380507;32;20248;-87
2022/09/21 09:57:29;;;;;;;;;;;;;;;16.95;60.11;100243.03;4394589;32;20030;-87
2022/09/21 10:00:02;;;;;;;;;;;;;;;17.10;60.12;100237.00;4380518;32;19986;-87
2022/09/21 10:02:28;;;;;;;;;;;;;;;17.22;60.12;100220.56;4394472;32;19975;-87
2022/09/21 10:05:02;;;;;;;;;;;;;;;17.25;60.12;100238.81;4394229;32;19985;-88
2022/09/21 10:07:37;;;;;;;;;;;;;;;17.30;60.12;100231.56;4380545;32;19991;-87
2022/09/21 10:10:02;;;;;;;;;;;;;;;17.05;60.12;100233.78;4380444;32;19993;-87
2022/09/21 10:12:27;;;;;;;;;;;;;;;17.28;60.12;100224.69;4380550;32;20114;-85
2022/09/21 10:14:55;;;;;;;;;;;;;;;17.43;60.13;100224.72;4380460;32;19977;-86
2022/09/21 10:17:20;;;;;;;;;;;;;;;17.53;60.14;100219.84;4380451;32;20102;-87
2022/09/21 10:19:45;;;;;;;;;;;;;;;17.64;60.15;100221.88;4379871;32;20008;-86
2022/09/21 10:22:14;;;;;;;;;;;;;;;17.55;60.13;100219.75;4380449;32;20005;-86
2022/09/21 10:24:41;;;;;;;;;;;;;;;17.54;60.13;100223.31;4380493;32;19983;-87
2022/09/21 10:27:10;;;;;;;;;;;;;;;17.58;60.14;100219.59;4379027;32;19987;-85
2022/09/21 10:29:42;;;;;;;;;;;;;;;17.58;60.14;100215.19;4378875;32;20385;-86
2022/09/21 10:32:11;;;;;;;;;;;;;;;17.58;60.14;100203.78;4395375;32;19961;-88
2022/09/21 10:34:36;;;;;;;;;;;;;;;17.73;60.15;100208.25;4380235;32;19990;-85
2022/09/21 10:37:04;;;;;;;;;;;;;;;17.76;60.15;100198.44;4381840;32;20028;-86
2022/09/21 10:39:30;;;;;;;;;;;;;;;17.97;60.16;100203.41;4380870;32;20006;-86
2022/09/21 10:41:58;;;;;;;;;;;;;;;18.04;60.16;100200.38;4381933;32;20244;-86
2022/09/21 10:44:28;;;;;;;;;;;;;;;18.26;60.18;100194.75;4379492;32;19979;-86
2022/09/21 10:46:54;;;;;;;;;;;;;;;18.41;60.19;100190.38;4381667;32;19986;-87
2022/09/21 10:49:23;;;;;;;;;;;;;;;18.26;60.18;100201.81;4381805;32;20033;-87
2022/09/21 10:51:49;;;;;;;;;;;;;;;18.60;60.19;100198.94;4381792;32;20006;-87
2022/09/21 10:54:20;;;;;;;;;;;;;;;18.68;60.20;100199.38;4380089;32;20001;-87
2022/09/21 10:56:49;;;;;;;;;;;;;;;18.51;60.19;100188.94;4379323;32;20009;-86
2022/09/21 10:59:17;;;;;;;;;;;;;;;18.74;60.20;100200.81;4378826;32;19998;-85
2022/09/21 11:01:44;;;;;;;;;;;;;;;18.65;60.20;100191.62;4379704;32;20392;-87
2022/09/21 11:04:36;;;;;;;;;;;;;;;18.81;60.21;100191.59;4380116;32;20118;-86
2022/09/21 11:07:18;;;;;;;;;;;;;;;18.99;60.22;100187.03;4391115;32;19998;-87
2022/09/21 11:09:56;;;;;;;;;;;;;;;18.97;60.22;100191.56;4379890;32;20056;-87
2022/09/21 11:12:21;;;;;;;;;;;;;;;18.88;60.21;100181.53;4393778;32;20339;-84
2022/09/21 11:14:55;;;;;;;;;;;;;;;18.62;60.20;100189.19;4394333;32;19966;-84
2022/09/21 11:17:24;;;;;;;;;;;;;;;18.68;60.20;100187.97;4381539;32;19991;-87
2022/09/21 11:19:51;;;;;;;;;;;;;;;18.85;60.21;100198.38;4393645;32;19989;-85
2022/09/21 11:22:39;;;;;;;;;;;;;;;18.82;60.21;100187.19;4379638;32;20039;-84
2022/09/21 11:25:06;;;;;;;;;;;;;;;18.99;60.21;100187.03;4379961;32;20041;-85
2022/09/21 11:27:35;;;;;;;;;;;;;;;18.84;60.21;100191.41;4393359;32;19990;-85
2022/09/21 11:30:13;;;;;;;;;;;;;;;18.80;60.21;100181.16;4393382;32;20444;-86
2022/09/21 11:33:10;;;;;;;;;;;;;;;19.08;60.23;100172.44;4379414;32;19997;-86
2022/09/21 11:35:51;;;;;;;;;;;;;;;19.17;60.23;100177.16;4370198;32;20399;-85
2022/09/21 11:38:35;;;;;;;;;;;;;;;19.18;60.23;100173.59;4381894;32;19991;-85
2022/09/21 11:41:19;;;;;;;;;;;;;;;19.04;60.22;100177.03;4381623;32;20044;-85
2022/09/21 11:43:55;;;;;;;;;;;;;;;19.19;60.23;100177.91;4382380;32;20012;-87
2022/09/21 11:46:20;;;;;;;;;;;;;;;19.45;60.24;100161.31;4382416;32;19986;-86
2022/09/21 11:49:26;;;;;;;;;;;;;;;19.70;60.25;100154.53;4382631;32;20585;-86
2022/09/21 11:51:59;;;;;;;;;;;;;;;19.76;60.26;100157.62;4336592;33;20173;-86
2022/09/21 11:54:47;;;;;;;;;;;;;;;19.79;60.27;100148.66;4336355;33;20100;-86
2022/09/21 11:57:19;;;;;;;;;;;;;;;19.70;60.26;100160.66;4367912;32;19993;-86
2022/09/21 12:00:16;;;;;;;;;;;;;;;19.28;60.24;100158.87;4395592;32;19993;-86
2022/09/21 12:03:00;;;;;;;;;;;;;;;19.30;60.23;100156.97;4370056;32;20036;-86
2022/09/21 12:05:40;;;;;;;;;;;;;;;19.37;60.24;100147.72;4396289;32;19975;-87
2022/09/21 12:08:05;;;;;;;;;;;;;;;19.36;60.24;100147.84;4381893;32;20305;-86
2022/09/21 12:10:51;;;;;;;;;;;;;;;19.07;60.22;100144.34;4397287;32;19983;-86
2022/09/21 12:13:25;;;;;;;;;;;;;;;18.74;60.21;100152.50;4383162;32;20002;-86
2022/09/21 12:15:55;;;;;;;;;;;;;;;18.71;60.21;100164.09;4383707;32;20343;-85
2022/09/21 12:18:32;;;;;;;;;;;;;;;18.68;60.20;100157.19;4382967;32;19973;-87
2022/09/21 12:21:00;;;;;;;;;;;;;;;18.71;60.22;100150.91;4384374;32;19997;-86
2022/09/21 12:23:30;;;;;;;;;;;;;;;18.95;60.22;100144.16;4384567;32;20018;-85
2022/09/21 12:25:56;;;;;;;;;;;;;;;19.04;60.22;100140.09;4384584;32;19958;-87
2022/09/21 12:28:23;;;;;;;;;;;;;;;19.09;60.24;100148.59;4382437;32;19963;-87
2022/09/21 12:30:50;;;;;;;;;;;;;;;19.22;60.23;100138.16;4382580;32;19998;-87
2022/09/21 12:33:18;;;;;;;;;;;;;;;19.27;60.24;100131.63;4397160;32;19988;-86
2022/09/21 12:35:50;;;;;;;;;;;;;;;19.36;60.24;100135.47;4383371;32;20057;-86
2022/09/21 12:38:16;;;;;;;;;;;;;;;19.27;60.24;100134.28;4383235;32;19969;-87
2022/09/21 12:40:46;;;;;;;;;;;;;;;19.23;60.24;100138.03;4384821;32;19995;-88
2022/09/21 12:43:14;;;;;;;;;;;;;;;19.37;60.24;100131.06;4388332;32;20671;-88
2022/09/21 12:45:58;;;;;;;;;;;;;;;19.40;60.25;100133.50;4397704;32;19974;-88